Ken Orchid — A8VZ2 — position and weather

sailwx.info

Track history (hours):
 
Tides and Currents Weather Stations Pressure Air Temp Water Temp Dewpoint Dewpoint Depression Visibility Wind Speed Wind Dir Waves Ship Positions

Ken Orchid

Last reported at 2015-Jan-19 20:32 UTC. Time now 2015-Jan-28 16:19 UTC.
Position N 41°17' E 029°10'.
Warning: this ship's position is 8 days out of date.

Length 169 m; draft 9.7 m.

Type: Ship. MMSI: 636014693.

Date/timePositionNaut miles runAvg speedWind from/ knotsBaromVisibWave heightAir tempDewpointWater temp
2015-Jan-19 20:32N 41°17' E 029°10'99 2.7
2015-Jan-18 08:20N 40°34' E 027°11'1112.7
2015-Jan-18 07:30N 40°30' E 026°58'1212.5
2015-Jan-18 06:32N 40°25' E 026°44'5310.2
2015-Jan-18 01:19N 39°50' E 025°52'1213.1
2015-Jan-18 00:24N 39°40' E 025°43'3013.5
2015-Jan-17 22:08N 39°13' E 025°24'2313.3
2015-Jan-17 20:23N 38°52' E 025°12'1313.2
2015-Jan-17 19:25N 38°40' E 025°04'3813.1
2015-Jan-17 16:32N 38°06' E 024°43'3912.5
2015-Jan-17 13:24N 37°31' E 024°22'1113.0
2015-Jan-17 12:32N 37°21' E 024°16'43312.0
2015-Jan-16 00:32N 36°23' E 015°20'1513.2
2015-Jan-15 23:22N 36°24' E 015°01'1213.1
2015-Jan-15 22:27N 36°26' E 014°46'1213.5
2015-Jan-15 21:32N 36°28' E 014°31'1313.3
2015-Jan-15 20:32N 36°31' E 014°15'1313.3
2015-Jan-15 19:33N 36°34' E 013°59'1413.5
2015-Jan-15 18:33N 36°37' E 013°42'1313.6
2015-Jan-15 17:33N 36°39' E 013°26'1313.1
2015-Jan-15 16:33N 36°44' E 013°11'1313.3
2015-Jan-15 15:34N 36°49' E 012°55'1613.4
2015-Jan-15 14:24N 36°55' E 012°37'15212.8
2015-Jan-15 02:33N 37°26' E 009°30'21313.3
2015-Jan-14 10:33N 37°15' E 005°03'2913.8
2015-Jan-14 08:27N 37°12' E 004°26'3013.9
2015-Jan-14 06:16N 37°08' E 003°48'1013.6
2015-Jan-14 05:33N 37°06' E 003°37'1414.4
2015-Jan-14 04:33N 37°04' E 003°19'1514.3
2015-Jan-14 03:29N 37°01' E 003°00'1313.7
2015-Jan-14 02:33N 36°58' E 002°45'1413.9
2015-Jan-14 01:32N 36°56' E 002°27'1414.0
2015-Jan-14 00:33N 36°53' E 002°10'1413.9
2015-Jan-13 23:33N 36°50' E 001°53'4314.2
2015-Jan-13 20:33N 36°42' E 001°01'1913.5
2015-Jan-13 19:11N 36°38' E 000°39'913.9
2015-Jan-13 18:32N 36°35' E 000°28'1614.4
2015-Jan-13 17:23N 36°34' E 000°08'1614.4
2015-Jan-13 16:18N 36°31' W 000°12'24212.8
2015-Jan-12 21:22N 36°03' W 005°10'1011.9
2015-Jan-12 20:33N 36°05' W 005°21'3 2.5
2015-Jan-12 19:22N 36°08' W 005°22'0 0.1
2015-Jan-12 18:28N 36°08' W 005°22'0 0.1
2015-Jan-12 16:28N 36°08' W 005°22'0 0.2
2015-Jan-12 15:28N 36°08' W 005°22'0 0.2
2015-Jan-12 14:31N 36°08' W 005°22'0 0.1
2015-Jan-12 13:28N 36°08' W 005°22'0 0.0
2015-Jan-12 12:22N 36°08' W 005°22'0 0.1
2015-Jan-12 11:22N 36°08' W 005°22'0 0.0
2015-Jan-12 10:28N 36°08' W 005°22'2 1.9
2015-Jan-12 09:33N 36°07' W 005°22'4 4.5
2015-Jan-12 08:33N 36°07' W 005°16'6 4.4
2015-Jan-12 07:14N 36°08' W 005°09'5 0.4
2015-Jan-11 19:27N 36°10' W 005°04'1 1.1
2015-Jan-11 18:33N 36°10' W 005°05'1110.7
2015-Jan-11 17:32N 36°03' W 005°16'1313.9
2015-Jan-11 16:33N 35°57' W 005°30'11113.2
2015-Jan-11 08:08N 35°59' W 007°47'1312.8
2015-Jan-11 07:10N 36°00' W 008°03'4912.9
2015-Jan-11 03:22N 36°04' W 009°03'1312.7
2015-Jan-11 02:21N 36°05' W 009°19'1312.9
2015-Jan-11 01:22N 36°06' W 009°35'1012.7
2015-Jan-11 00:33N 36°07' W 009°47'3912.8
2015-Jan-10 21:29N 36°08' W 010°36'1212.9
2015-Jan-10 20:33N 36°08' W 010°51'1312.7
2015-Jan-10 19:33N 36°08' W 011°06'1312.9
2015-Jan-10 18:33N 36°09' W 011°22'2612.7
2015-Jan-10 16:28N 36°09' W 011°55'1812.6
2015-Jan-10 15:04N 36°09' W 012°17'612.4
2015-Jan-10 14:33N 36°09' W 012°25'1312.5
2015-Jan-10 13:33N 36°09' W 012°40'1212.3
2015-Jan-10 12:33N 36°09' W 012°56'16611.8
2015-Jan-09 22:29N 36°11' W 016°21'  
Track history (hours):
 
Tides and Currents Weather Stations Pressure Air Temp Water Temp Dewpoint Dewpoint Depression Visibility Wind Speed Wind Dir Waves Ship Positions

Ken Orchid

Last reported at 2015-Jan-19 20:32 UTC. Time now 2015-Jan-28 16:19 UTC.
Position N 41°17' E 029°10'.
Warning: this ship's position is 8 days out of date.

Length 169 m; draft 9.7 m.

Type: Ship. MMSI: 636014693.

Date/timePositionNaut miles runAvg speedWind from/ knotsBaromVisibWave heightAir tempDewpointWater temp
2015-Jan-19 20:32N 41°17' E 029°10'99 2.7
2015-Jan-18 08:20N 40°34' E 027°11'1112.7
2015-Jan-18 07:30N 40°30' E 026°58'1212.5
2015-Jan-18 06:32N 40°25' E 026°44'5310.2
2015-Jan-18 01:19N 39°50' E 025°52'1213.1
2015-Jan-18 00:24N 39°40' E 025°43'3013.5
2015-Jan-17 22:08N 39°13' E 025°24'2313.3
2015-Jan-17 20:23N 38°52' E 025°12'1313.2
2015-Jan-17 19:25N 38°40' E 025°04'3813.1
2015-Jan-17 16:32N 38°06' E 024°43'3912.5
2015-Jan-17 13:24N 37°31' E 024°22'1113.0
2015-Jan-17 12:32N 37°21' E 024°16'43312.0
2015-Jan-16 00:32N 36°23' E 015°20'1513.2
2015-Jan-15 23:22N 36°24' E 015°01'1213.1
2015-Jan-15 22:27N 36°26' E 014°46'1213.5
2015-Jan-15 21:32N 36°28' E 014°31'1313.3
2015-Jan-15 20:32N 36°31' E 014°15'1313.3
2015-Jan-15 19:33N 36°34' E 013°59'1413.5
2015-Jan-15 18:33N 36°37' E 013°42'1313.6
2015-Jan-15 17:33N 36°39' E 013°26'1313.1
2015-Jan-15 16:33N 36°44' E 013°11'1313.3
2015-Jan-15 15:34N 36°49' E 012°55'1613.4
2015-Jan-15 14:24N 36°55' E 012°37'15212.8
2015-Jan-15 02:33N 37°26' E 009°30'21313.3
2015-Jan-14 10:33N 37°15' E 005°03'2913.8
2015-Jan-14 08:27N 37°12' E 004°26'3013.9
2015-Jan-14 06:16N 37°08' E 003°48'1013.6
2015-Jan-14 05:33N 37°06' E 003°37'1414.4
2015-Jan-14 04:33N 37°04' E 003°19'1514.3
2015-Jan-14 03:29N 37°01' E 003°00'1313.7
2015-Jan-14 02:33N 36°58' E 002°45'1413.9
2015-Jan-14 01:32N 36°56' E 002°27'1414.0
2015-Jan-14 00:33N 36°53' E 002°10'1413.9
2015-Jan-13 23:33N 36°50' E 001°53'4314.2
2015-Jan-13 20:33N 36°42' E 001°01'1913.5
2015-Jan-13 19:11N 36°38' E 000°39'913.9
2015-Jan-13 18:32N 36°35' E 000°28'1614.4
2015-Jan-13 17:23N 36°34' E 000°08'1614.4
2015-Jan-13 16:18N 36°31' W 000°12'24212.8
2015-Jan-12 21:22N 36°03' W 005°10'1011.9
2015-Jan-12 20:33N 36°05' W 005°21'3 2.5
2015-Jan-12 19:22N 36°08' W 005°22'0 0.1
2015-Jan-12 18:28N 36°08' W 005°22'0 0.1
2015-Jan-12 16:28N 36°08' W 005°22'0 0.2
2015-Jan-12 15:28N 36°08' W 005°22'0 0.2
2015-Jan-12 14:31N 36°08' W 005°22'0 0.1
2015-Jan-12 13:28N 36°08' W 005°22'0 0.0
2015-Jan-12 12:22N 36°08' W 005°22'0 0.1
2015-Jan-12 11:22N 36°08' W 005°22'0 0.0
2015-Jan-12 10:28N 36°08' W 005°22'2 1.9
2015-Jan-12 09:33N 36°07' W 005°22'4 4.5
2015-Jan-12 08:33N 36°07' W 005°16'6 4.4
2015-Jan-12 07:14N 36°08' W 005°09'5 0.4
2015-Jan-11 19:27N 36°10' W 005°04'1 1.1
2015-Jan-11 18:33N 36°10' W 005°05'1110.7
2015-Jan-11 17:32N 36°03' W 005°16'1313.9
2015-Jan-11 16:33N 35°57' W 005°30'11113.2
2015-Jan-11 08:08N 35°59' W 007°47'1312.8
2015-Jan-11 07:10N 36°00' W 008°03'4912.9
2015-Jan-11 03:22N 36°04' W 009°03'1312.7
2015-Jan-11 02:21N 36°05' W 009°19'1312.9
2015-Jan-11 01:22N 36°06' W 009°35'1012.7
2015-Jan-11 00:33N 36°07' W 009°47'3912.8
2015-Jan-10 21:29N 36°08' W 010°36'1212.9
2015-Jan-10 20:33N 36°08' W 010°51'1312.7
2015-Jan-10 19:33N 36°08' W 011°06'1312.9
2015-Jan-10 18:33N 36°09' W 011°22'2612.7
2015-Jan-10 16:28N 36°09' W 011°55'1812.6
2015-Jan-10 15:04N 36°09' W 012°17'612.4
2015-Jan-10 14:33N 36°09' W 012°25'1312.5
2015-Jan-10 13:33N 36°09' W 012°40'1212.3
2015-Jan-10 12:33N 36°09' W 012°56'16611.8
2015-Jan-09 22:29N 36°11' W 016°21'  

Dump ship's entire track history